createdAt,value
2018-10-05T00:01:41.227Z,41.17
2018-10-05T00:04:10.321Z,43.77
2018-10-05T00:06:39.367Z,40.47
2018-10-05T00:09:10.946Z,41.20
2018-10-05T00:11:40.133Z,38.90
2018-10-05T00:14:09.466Z,40.93
2018-10-05T00:16:38.572Z,39.50
2018-10-05T00:19:07.731Z,39.97
2018-10-05T00:21:36.775Z,38.90
2018-10-05T00:24:05.870Z,37.90
2018-10-05T00:26:34.985Z,37.07
2018-10-05T00:29:04.010Z,36.77
2018-10-05T00:31:33.128Z,36.37
2018-10-05T00:34:02.230Z,37.30
2018-10-05T00:36:31.377Z,37.47
2018-10-05T00:39:00.443Z,36.13
2018-10-05T00:41:29.507Z,36.83
2018-10-05T00:43:58.628Z,35.80
2018-10-05T00:46:27.683Z,34.63
2018-10-05T00:48:56.784Z,35.80
2018-10-05T00:51:25.837Z,33.03
2018-10-05T00:53:54.908Z,33.10
2018-10-05T00:56:24.019Z,33.37
2018-10-05T00:58:53.121Z,34.30
2018-10-05T01:01:22.199Z,33.60
2018-10-05T01:03:51.327Z,34.63
2018-10-05T01:06:20.365Z,32.70
2018-10-05T01:08:49.460Z,33.07
2018-10-05T01:11:18.604Z,32.33
2018-10-05T01:13:48.936Z,32.23
2018-10-05T01:16:17.970Z,31.07
2018-10-05T01:18:47.311Z,29.77
2018-10-05T01:21:16.382Z,32.43
2018-10-05T01:23:45.439Z,30.30
2018-10-05T01:26:14.496Z,32.10
2018-10-05T01:28:43.570Z,30.07
2018-10-05T01:31:12.792Z,30.23
2018-10-05T01:33:41.882Z,29.37
2018-10-05T01:36:10.966Z,29.20
2018-10-05T01:38:40.099Z,29.43
2018-10-05T01:41:09.366Z,29.33
2018-10-05T01:43:38.498Z,28.50
2018-10-05T01:46:07.616Z,28.57
2018-10-05T01:48:36.707Z,28.40
2018-10-05T01:51:05.755Z,28.50
2018-10-05T01:53:34.808Z,26.10
2018-10-05T01:56:03.870Z,28.73
2018-10-05T01:58:33.810Z,26.90
2018-10-05T02:01:03.236Z,27.27
2018-10-05T02:03:32.280Z,26.87
2018-10-05T02:06:02.962Z,24.13
2018-10-05T02:08:34.173Z,27.07
2018-10-05T02:11:03.326Z,25.70
2018-10-05T02:13:32.448Z,25.20
2018-10-05T02:16:01.523Z,24.67
2018-10-05T02:18:30.629Z,26.37
2018-10-05T02:20:59.727Z,24.23
2018-10-05T02:23:28.787Z,24.93
2018-10-05T02:25:58.086Z,25.80
2018-10-05T02:28:27.191Z,24.30
2018-10-05T02:30:56.425Z,24.27
2018-10-05T02:33:25.534Z,22.77
2018-10-05T02:35:54.631Z,23.57
2018-10-05T02:38:23.699Z,22.77
2018-10-05T02:40:52.779Z,22.83
2018-10-05T02:43:21.836Z,22.83
2018-10-05T02:45:50.902Z,22.87
2018-10-05T02:48:20.162Z,23.57
2018-10-05T02:50:49.434Z,21.93
2018-10-05T02:53:18.486Z,21.27
2018-10-05T02:55:47.602Z,21.73
2018-10-05T02:58:16.658Z,21.73
2018-10-05T03:00:57.246Z,21.20
2018-10-05T03:03:26.428Z,21.37
2018-10-05T03:05:55.530Z,21.83
2018-10-05T03:08:24.576Z,21.00
2018-10-05T03:10:53.728Z,21.10
2018-10-05T03:13:22.835Z,20.27
2018-10-05T03:15:51.919Z,21.20
2018-10-05T03:18:20.992Z,18.90
2018-10-05T03:20:50.137Z,20.47
2018-10-05T03:23:19.166Z,19.37
2018-10-05T03:25:48.234Z,19.13
2018-10-05T03:28:17.386Z,19.13
2018-10-05T03:30:46.502Z,20.70
2018-10-05T03:33:15.598Z,19.70
2018-10-05T03:35:44.678Z,19.57
2018-10-05T03:38:13.738Z,18.70
2018-10-05T03:40:42.842Z,18.63
2018-10-05T03:43:11.903Z,18.77
2018-10-05T03:45:40.967Z,18.23
2018-10-05T03:48:10.066Z,18.20
2018-10-05T03:50:39.150Z,18.47
2018-10-05T03:53:08.238Z,18.70
2018-10-05T03:55:37.479Z,18.50
2018-10-05T03:58:06.571Z,17.17
2018-10-05T04:00:35.676Z,17.67
2018-10-05T04:03:04.826Z,17.67
2018-10-05T04:05:33.923Z,17.30
2018-10-05T04:08:03.044Z,16.57
2018-10-05T04:10:32.122Z,16.20
2018-10-05T04:13:01.832Z,16.07
2018-10-05T04:15:31.166Z,15.80
2018-10-05T04:18:00.204Z,16.37
2018-10-05T04:20:29.252Z,16.27
2018-10-05T04:22:59.168Z,17.23
2018-10-05T04:25:28.268Z,15.67
2018-10-05T04:27:57.229Z,16.00
2018-10-05T04:30:26.321Z,14.57
2018-10-05T04:32:55.386Z,14.00
2018-10-05T04:35:24.550Z,14.33
2018-10-05T04:37:53.803Z,14.83
2018-10-05T04:40:22.927Z,14.70
2018-10-05T04:42:52.109Z,15.27
2018-10-05T04:45:21.380Z,15.40
2018-10-05T04:47:50.443Z,14.63
2018-10-05T04:50:19.519Z,14.30
2018-10-05T04:52:48.568Z,14.00
2018-10-05T04:55:17.651Z,14.00
2018-10-05T04:57:46.715Z,14.97
2018-10-05T05:00:15.809Z,13.20
2018-10-05T05:02:44.876Z,13.13
2018-10-05T05:05:19.415Z,12.53
2018-10-05T05:07:48.635Z,13.30
2018-10-05T05:10:17.688Z,13.33
2018-10-05T05:12:46.760Z,13.73
2018-10-05T05:15:15.824Z,13.47
2018-10-05T05:17:44.913Z,12.87
2018-10-05T05:20:13.977Z,14.27
2018-10-05T05:22:43.072Z,13.20
2018-10-05T05:25:12.163Z,13.23
2018-10-05T05:27:41.280Z,12.93
2018-10-05T05:30:10.948Z,12.90
2018-10-05T05:32:40.120Z,12.30
2018-10-05T05:35:09.159Z,12.20
2018-10-05T05:37:43.758Z,12.20
2018-10-05T05:40:12.950Z,12.77
2018-10-05T05:42:42.210Z,13.03
2018-10-05T05:45:11.280Z,12.17
2018-10-05T05:47:40.672Z,12.10
2018-10-05T05:50:09.800Z,11.83
2018-10-05T05:52:38.855Z,12.33
2018-10-05T05:55:07.940Z,11.83
2018-10-05T05:57:37.075Z,12.07
2018-10-05T06:00:06.168Z,10.93
2018-10-05T06:02:35.295Z,12.03
2018-10-05T06:05:04.332Z,10.93
2018-10-05T06:07:33.390Z,11.50
2018-10-05T06:10:02.792Z,11.07
2018-10-05T06:12:31.851Z,11.07
2018-10-05T06:15:00.923Z,11.40
2018-10-05T06:17:29.971Z,10.00
2018-10-05T06:19:59.095Z,10.70
2018-10-05T06:22:28.378Z,10.27
2018-10-05T06:24:57.531Z,10.83
2018-10-05T06:27:26.618Z,10.87
2018-10-05T06:29:55.930Z,10.37
2018-10-05T06:32:25.043Z,10.40
2018-10-05T06:34:54.127Z,10.90
2018-10-05T06:37:26.576Z,11.00
2018-10-05T06:39:55.699Z,10.93
2018-10-05T06:42:25.019Z,9.37
2018-10-05T06:44:54.311Z,10.03
2018-10-05T06:47:23.427Z,9.10
2018-10-05T06:49:52.447Z,10.87
2018-10-05T06:52:21.592Z,9.53
2018-10-05T06:54:50.649Z,10.17
2018-10-05T06:57:19.696Z,9.97
2018-10-05T06:59:48.759Z,9.47
2018-10-05T07:02:17.851Z,9.83
2018-10-05T07:04:46.949Z,10.70
2018-10-05T07:07:16.035Z,9.10
2018-10-05T07:09:45.152Z,10.30
2018-10-05T07:12:14.317Z,8.67
2018-10-05T07:14:43.444Z,9.33
2018-10-05T07:17:12.608Z,8.77
2018-10-05T07:19:41.775Z,9.80
2018-10-05T07:22:10.790Z,10.37
2018-10-05T07:24:39.849Z,9.73
2018-10-05T07:27:08.938Z,8.63
2018-10-05T07:29:38.074Z,9.90
2018-10-05T07:32:07.287Z,9.23
2018-10-05T07:34:36.353Z,13.67
2018-10-05T07:37:05.456Z,14.83
2018-10-05T07:39:34.681Z,15.27
2018-10-05T07:42:03.787Z,16.93
2018-10-05T07:44:33.023Z,16.03
2018-10-05T07:47:02.083Z,17.43
2018-10-05T07:49:31.327Z,15.63
2018-10-05T07:52:00.416Z,16.93
2018-10-05T07:54:29.526Z,14.90
2018-10-05T07:56:58.560Z,15.80
2018-10-05T07:59:27.620Z,14.97
2018-10-05T08:01:56.670Z,14.23
2018-10-05T08:04:25.756Z,14.53
2018-10-05T08:06:54.840Z,13.83
2018-10-05T08:09:23.999Z,12.03
2018-10-05T08:11:53.179Z,13.37
2018-10-05T08:14:22.239Z,12.80
2018-10-05T08:16:51.312Z,11.40
2018-10-05T08:19:20.436Z,12.07
2018-10-05T08:21:49.522Z,12.17
2018-10-05T08:24:18.578Z,11.93
2018-10-05T08:26:47.644Z,10.67
2018-10-05T08:29:16.810Z,10.60
2018-10-05T08:31:45.890Z,11.17
2018-10-05T08:34:15.079Z,10.40
2018-10-05T08:36:44.283Z,10.40
2018-10-05T08:39:13.362Z,10.07
2018-10-05T08:41:42.496Z,10.03
2018-10-05T08:44:11.827Z,9.30
2018-10-05T08:46:40.924Z,9.23
2018-10-05T08:49:09.993Z,9.90
2018-10-05T08:51:39.101Z,9.10
2018-10-05T08:54:08.583Z,8.87
2018-10-05T08:56:37.634Z,8.33
2018-10-05T08:59:06.808Z,8.37
2018-10-05T09:01:35.849Z,8.93
2018-10-05T09:04:04.995Z,7.97
2018-10-05T09:06:34.045Z,8.07
2018-10-05T09:09:03.512Z,7.63
2018-10-05T09:11:32.603Z,7.43
2018-10-05T09:14:01.677Z,7.57
2018-10-05T09:16:30.745Z,7.70
2018-10-05T09:19:00.014Z,7.20
2018-10-05T09:21:29.087Z,7.07
2018-10-05T09:23:58.172Z,7.40
2018-10-05T09:26:27.391Z,8.03
2018-10-05T09:28:56.473Z,8.03
2018-10-05T09:31:25.538Z,7.30
2018-10-05T09:33:55.605Z,6.13
2018-10-05T09:36:24.680Z,7.10
2018-10-05T09:38:53.737Z,6.23
2018-10-05T09:41:22.820Z,7.53
2018-10-05T09:43:51.875Z,7.17
2018-10-05T09:46:20.991Z,6.63
2018-10-05T09:48:50.133Z,6.63
2018-10-05T09:51:19.220Z,5.97
2018-10-05T09:53:48.327Z,6.13
2018-10-05T09:56:17.406Z,6.73
2018-10-05T09:58:46.507Z,6.60
2018-10-05T10:01:20.876Z,6.87
2018-10-05T10:03:49.910Z,6.23
2018-10-05T10:06:19.030Z,6.13
2018-10-05T10:08:48.115Z,5.83
2018-10-05T10:11:17.151Z,5.53
2018-10-05T10:13:46.537Z,5.97
2018-10-05T10:16:15.867Z,5.40
2018-10-05T10:18:44.933Z,6.07
2018-10-05T10:21:14.003Z,5.93
2018-10-05T10:23:43.087Z,5.97
2018-10-05T10:26:12.147Z,6.47
2018-10-05T10:28:41.315Z,7.33
2018-10-05T10:31:10.483Z,6.93
2018-10-05T10:33:39.574Z,8.17
2018-10-05T10:36:08.844Z,8.90
2018-10-05T10:38:37.906Z,9.57
2018-10-05T10:41:07.098Z,11.23
2018-10-05T10:43:36.149Z,9.47
2018-10-05T10:46:05.237Z,9.83
2018-10-05T10:48:34.297Z,9.83
2018-10-05T10:51:03.356Z,9.37
2018-10-05T10:53:32.447Z,9.37
2018-10-05T10:56:01.533Z,8.70
2018-10-05T10:58:30.724Z,9.33
2018-10-05T11:00:59.917Z,8.17
2018-10-05T11:03:29.114Z,7.87
2018-10-05T11:05:58.277Z,8.90
2018-10-05T11:08:27.579Z,7.53
2018-10-05T11:10:56.907Z,7.60
2018-10-05T11:13:26.333Z,8.30
2018-10-05T11:15:55.495Z,8.07
2018-10-05T11:18:24.771Z,7.93
2018-10-05T11:20:54.103Z,7.20
2018-10-05T11:23:23.402Z,7.20
2018-10-05T11:25:52.921Z,7.40
2018-10-05T11:28:22.100Z,7.73
2018-10-05T11:30:51.407Z,7.93
2018-10-05T11:33:20.680Z,7.30
2018-10-05T11:35:49.930Z,7.07
2018-10-05T11:38:19.118Z,7.03
2018-10-05T11:40:48.461Z,7.50
2018-10-05T11:43:17.830Z,6.93
2018-10-05T11:45:47.008Z,6.50
2018-10-05T11:48:16.174Z,7.20
2018-10-05T11:50:45.461Z,6.97
2018-10-05T11:53:14.718Z,7.33
2018-10-05T11:55:44.029Z,6.53
2018-10-05T11:58:13.196Z,6.07
2018-10-05T12:00:42.513Z,7.53
2018-10-05T12:03:11.694Z,5.83
2018-10-05T12:05:40.972Z,5.70
2018-10-05T12:08:10.314Z,6.40
2018-10-05T12:10:39.503Z,6.33
2018-10-05T12:13:08.874Z,6.97
2018-10-05T12:15:38.202Z,7.37
2018-10-05T12:18:07.521Z,6.50
2018-10-05T12:20:36.777Z,6.73
2018-10-05T12:23:05.995Z,6.43
2018-10-05T12:25:35.184Z,5.93
2018-10-05T12:28:04.413Z,6.33
2018-10-05T12:30:33.605Z,6.60
2018-10-05T12:33:02.807Z,6.00
2018-10-05T12:35:32.021Z,5.93
2018-10-05T12:38:01.269Z,6.00
2018-10-05T12:40:30.569Z,5.63
2018-10-05T12:42:59.795Z,5.60
2018-10-05T12:45:28.967Z,5.50
2018-10-05T12:47:58.244Z,5.80
2018-10-05T12:50:27.433Z,5.60
2018-10-05T12:52:56.619Z,5.83
2018-10-05T12:55:25.872Z,5.27
2018-10-05T12:57:55.037Z,5.40
2018-10-05T13:00:24.276Z,4.87
2018-10-05T13:02:53.620Z,5.03
2018-10-05T13:05:22.816Z,5.30
2018-10-05T13:07:52.127Z,5.03
2018-10-05T13:10:21.360Z,4.60
2018-10-05T13:12:50.708Z,5.50
2018-10-05T13:15:20.125Z,5.10
2018-10-05T13:17:49.330Z,5.33
2018-10-05T13:20:18.585Z,5.47
2018-10-05T13:22:47.894Z,4.53
2018-10-05T13:25:17.078Z,5.03
2018-10-05T13:27:46.253Z,4.70
2018-10-05T13:30:15.383Z,4.23
2018-10-05T13:32:44.614Z,4.30
2018-10-05T13:35:13.778Z,4.63
2018-10-05T13:37:42.958Z,4.17
2018-10-05T13:40:12.159Z,4.13
2018-10-05T13:42:41.355Z,4.17
2018-10-05T13:45:10.551Z,4.70
2018-10-05T13:47:39.754Z,4.43
2018-10-05T13:50:10.600Z,4.20
2018-10-05T13:52:39.887Z,4.43
2018-10-05T13:55:09.183Z,4.00
2018-10-05T13:57:38.377Z,4.87
2018-10-05T14:00:07.895Z,4.50
2018-10-05T14:02:37.184Z,4.77
2018-10-05T14:05:06.503Z,4.63
2018-10-05T14:07:35.679Z,4.60
2018-10-05T14:10:05.218Z,4.20
2018-10-05T14:12:34.461Z,4.53
2018-10-05T14:15:03.717Z,4.00
2018-10-05T14:17:32.953Z,4.23
2018-10-05T14:20:02.343Z,3.87
2018-10-05T14:22:31.586Z,3.80
2018-10-05T14:25:00.739Z,3.73
2018-10-05T14:27:29.917Z,4.03
2018-10-05T14:29:59.088Z,3.83
2018-10-05T14:32:28.419Z,4.13
2018-10-05T14:34:57.610Z,3.83
2018-10-05T14:37:26.906Z,3.83
2018-10-05T14:39:56.032Z,3.50
2018-10-05T14:42:25.200Z,4.30
2018-10-05T14:44:54.455Z,4.23
2018-10-05T14:47:23.815Z,4.10
2018-10-05T14:49:53.000Z,3.27
2018-10-05T14:52:24.501Z,4.33
2018-10-05T14:54:54.766Z,3.53
2018-10-05T14:57:24.010Z,4.00
2018-10-05T14:59:54.108Z,4.80
2018-10-05T15:02:23.352Z,3.97
2018-10-05T15:04:52.753Z,4.57
2018-10-05T15:07:21.981Z,4.90
2018-10-05T15:09:51.345Z,4.53
2018-10-05T15:12:20.744Z,4.80
2018-10-05T15:14:49.962Z,4.33
2018-10-05T15:17:19.288Z,4.60
2018-10-05T15:19:48.469Z,5.10
2018-10-05T15:22:17.686Z,4.10
2018-10-05T15:24:47.017Z,4.20
2018-10-05T15:27:16.252Z,3.97
2018-10-05T15:29:45.482Z,4.20
2018-10-05T15:32:20.062Z,4.33
2018-10-05T15:34:49.264Z,4.60
2018-10-05T15:37:18.492Z,4.37
2018-10-05T15:39:47.695Z,4.33
2018-10-05T15:42:16.818Z,4.67
2018-10-05T15:44:46.413Z,4.97
2018-10-05T15:47:16.726Z,4.50
2018-10-05T15:49:46.467Z,4.63
2018-10-05T15:52:15.689Z,5.17
2018-10-05T15:54:44.894Z,4.60
2018-10-05T15:57:14.062Z,5.20
2018-10-05T15:59:43.290Z,5.10
2018-10-05T16:02:12.630Z,5.20
2018-10-05T16:04:42.008Z,4.60
2018-10-05T16:07:11.169Z,5.17
2018-10-05T16:09:40.419Z,6.50
2018-10-05T16:12:09.624Z,5.60
2018-10-05T16:14:38.930Z,5.03
2018-10-05T16:17:08.284Z,5.40
2018-10-05T16:19:37.551Z,5.17
2018-10-05T16:22:06.851Z,5.27
2018-10-05T16:24:43.788Z,5.37
2018-10-05T16:27:13.703Z,4.97
2018-10-05T16:29:42.939Z,4.77
2018-10-05T16:32:12.479Z,5.17
2018-10-05T16:34:41.815Z,4.83
2018-10-05T16:37:11.272Z,4.50
2018-10-05T16:39:40.654Z,4.70
2018-10-05T16:42:09.931Z,4.63
2018-10-05T16:57:43.661Z,4.57
2018-10-05T17:00:12.869Z,3.77
2018-10-05T17:02:42.022Z,4.47
2018-10-05T17:05:11.163Z,4.17
2018-10-05T17:07:40.333Z,4.40
2018-10-05T17:10:09.549Z,4.13
2018-10-05T17:12:38.845Z,3.70
2018-10-05T17:15:08.064Z,3.80
2018-10-05T17:17:37.242Z,4.23
2018-10-05T17:20:06.441Z,3.70
2018-10-05T17:22:35.734Z,4.27
2018-10-05T17:25:05.034Z,4.13
2018-10-05T17:27:34.240Z,3.67
2018-10-05T17:30:03.576Z,3.93
2018-10-05T17:32:32.750Z,3.60
2018-10-05T17:35:01.967Z,3.77
2018-10-05T17:37:31.221Z,3.50
2018-10-05T17:40:00.423Z,3.20
2018-10-05T17:42:29.523Z,3.73
2018-10-05T17:44:58.739Z,3.60
2018-10-05T17:47:28.244Z,4.20
2018-10-05T17:49:57.417Z,4.10
2018-10-05T17:52:26.740Z,3.90
2018-10-05T17:54:55.933Z,3.30
2018-10-05T17:57:25.222Z,3.33
2018-10-05T17:59:54.635Z,3.43
2018-10-05T18:02:24.018Z,3.90
2018-10-05T18:04:53.769Z,3.73
2018-10-05T18:07:22.964Z,3.37
2018-10-05T18:09:52.249Z,3.33
2018-10-05T18:12:21.509Z,3.53
2018-10-05T18:14:50.749Z,3.57
2018-10-05T18:17:20.139Z,3.70
2018-10-05T18:19:49.647Z,3.23
2018-10-05T18:22:18.870Z,3.47
2018-10-05T18:24:48.134Z,3.40
2018-10-05T18:27:17.314Z,3.20
2018-10-05T18:29:46.642Z,3.37
2018-10-05T18:32:15.854Z,3.40
2018-10-05T18:34:45.028Z,3.80
2018-10-05T18:37:14.202Z,3.13
2018-10-05T18:39:43.546Z,3.67
2018-10-05T18:42:12.740Z,3.33
2018-10-05T18:44:41.922Z,3.17
2018-10-05T18:47:11.092Z,3.73
2018-10-05T18:49:40.284Z,3.63
2018-10-05T18:52:09.450Z,3.30
2018-10-05T18:54:38.644Z,3.30
2018-10-05T18:57:13.587Z,3.17
2018-10-05T18:59:42.981Z,3.43
2018-10-05T19:02:12.552Z,3.70
2018-10-05T19:04:42.072Z,2.97
2018-10-05T19:07:11.270Z,3.47
2018-10-05T19:09:40.546Z,3.37
2018-10-05T19:12:09.692Z,3.40
2018-10-05T19:14:38.868Z,3.50
2018-10-05T19:17:08.064Z,3.20
2018-10-05T19:19:37.276Z,3.53
2018-10-05T19:22:06.954Z,3.23
2018-10-05T19:24:36.137Z,3.10
2018-10-05T19:27:05.411Z,3.30
2018-10-05T19:29:34.596Z,3.97
2018-10-05T19:32:03.910Z,3.57
2018-10-05T19:34:33.085Z,3.40
2018-10-05T19:37:02.189Z,3.67
2018-10-05T19:39:31.564Z,3.80
2018-10-05T19:42:00.919Z,3.23
2018-10-05T19:44:30.235Z,3.63
2018-10-05T19:46:59.334Z,3.73
2018-10-05T19:49:28.589Z,3.63
2018-10-05T19:51:57.830Z,3.63
2018-10-05T19:54:27.058Z,3.53
2018-10-05T19:56:56.294Z,4.57
2018-10-05T19:59:31.050Z,5.97
2018-10-05T20:02:05.974Z,6.63
2018-10-05T20:04:35.333Z,8.13
2018-10-05T20:07:04.726Z,7.53
2018-10-05T20:09:33.948Z,8.77
2018-10-05T20:12:03.170Z,8.23
2018-10-05T20:14:32.409Z,7.97
2018-10-05T20:17:01.648Z,8.00
2018-10-05T20:19:30.809Z,7.87
2018-10-05T20:22:00.006Z,8.33
2018-10-05T20:24:29.409Z,7.60
2018-10-05T20:26:58.748Z,8.00
2018-10-05T20:29:27.955Z,7.17
2018-10-05T20:31:57.204Z,7.43
2018-10-05T20:34:26.456Z,7.80
2018-10-05T20:36:56.016Z,7.77
2018-10-05T20:39:25.262Z,8.73
2018-10-05T20:41:54.497Z,8.53
2018-10-05T20:44:23.879Z,8.00
2018-10-05T20:46:53.356Z,8.60
2018-10-05T20:49:22.609Z,7.97
2018-10-05T20:51:51.852Z,8.47
2018-10-05T20:54:21.066Z,8.00
2018-10-05T20:56:50.306Z,7.97
2018-10-05T20:59:19.650Z,8.27
2018-10-05T21:01:48.872Z,7.50
2018-10-05T21:04:18.266Z,8.23
2018-10-05T21:06:47.646Z,7.87
2018-10-05T21:09:16.981Z,7.17
2018-10-05T21:11:46.181Z,7.40
2018-10-05T21:14:17.267Z,7.83
2018-10-05T21:16:46.480Z,7.93
2018-10-05T21:19:15.876Z,7.53
2018-10-05T21:21:45.150Z,7.90
2018-10-05T21:24:14.398Z,6.70
2018-10-05T21:26:43.704Z,6.60
2018-10-05T21:29:12.882Z,6.83
2018-10-05T21:31:42.134Z,7.17
2018-10-05T21:34:11.386Z,6.77
2018-10-05T21:36:40.665Z,7.37
2018-10-05T21:39:11.101Z,7.33
2018-10-05T21:41:40.520Z,7.30
2018-10-05T21:44:09.852Z,7.20
2018-10-05T21:46:39.071Z,7.00
2018-10-05T21:49:08.484Z,6.90
2018-10-05T21:51:37.824Z,6.80
2018-10-05T21:54:07.274Z,5.97
2018-10-05T21:56:36.455Z,7.40
2018-10-05T21:59:05.685Z,6.47
2018-10-05T22:01:34.969Z,6.47
2018-10-05T22:04:04.222Z,6.53
2018-10-05T22:06:33.544Z,6.17
2018-10-05T22:09:02.810Z,6.20
2018-10-05T22:11:32.017Z,6.20
2018-10-05T22:14:01.348Z,6.43
2018-10-05T22:16:30.626Z,6.30
2018-10-05T22:18:59.842Z,5.70
2018-10-05T22:21:29.043Z,6.60
2018-10-05T22:23:58.256Z,6.47
2018-10-05T22:26:27.502Z,6.37
2018-10-05T22:28:56.739Z,5.97
2018-10-05T22:31:26.003Z,6.17
2018-10-05T22:33:55.327Z,5.50
2018-10-05T22:36:24.657Z,6.13
2018-10-05T22:38:53.829Z,6.07
2018-10-05T22:41:23.050Z,5.80
2018-10-05T22:43:52.343Z,5.80
2018-10-05T22:46:21.581Z,5.40
2018-10-05T22:48:50.849Z,6.27
2018-10-05T22:51:19.929Z,5.73
2018-10-05T22:53:48.985Z,5.30
2018-10-05T22:56:18.055Z,5.40
2018-10-05T22:58:47.183Z,6.10
2018-10-05T23:01:16.336Z,4.70
2018-10-05T23:03:45.387Z,6.03
2018-10-05T23:06:14.451Z,4.93
2018-10-05T23:08:43.567Z,5.83
2018-10-05T23:11:12.632Z,5.77
2018-10-05T23:13:41.702Z,5.27
2018-10-05T23:16:10.790Z,5.37
2018-10-05T23:18:39.865Z,5.50
2018-10-05T23:21:08.974Z,5.03
2018-10-05T23:23:38.071Z,5.13
2018-10-05T23:26:07.167Z,5.27
2018-10-05T23:28:36.293Z,5.20
2018-10-05T23:31:05.384Z,5.03
2018-10-05T23:33:34.429Z,4.90
2018-10-05T23:36:03.567Z,5.40
2018-10-05T23:38:32.663Z,4.93
2018-10-05T23:41:01.836Z,5.23
2018-10-05T23:43:30.939Z,5.50
2018-10-05T23:46:00.125Z,4.40
2018-10-05T23:48:29.361Z,4.33
2018-10-05T23:50:58.566Z,5.10
2018-10-05T23:53:27.722Z,5.00
2018-10-05T23:55:56.941Z,5.13
2018-10-05T23:58:26.277Z,4.90
